createdAt,value
2023-03-18T00:01:51.848Z,67.28
2023-03-18T00:06:53.416Z,67.21
2023-03-18T00:11:56.622Z,67.54
2023-03-18T00:16:58.008Z,68.30
2023-03-18T00:21:59.707Z,68.47
2023-03-18T00:27:01.163Z,69.12
2023-03-18T00:32:02.678Z,69.63
2023-03-18T00:37:04.080Z,70.17
2023-03-18T00:42:10.673Z,69.34
2023-03-18T00:47:12.133Z,69.63
2023-03-18T00:52:13.650Z,69.82
2023-03-18T00:57:15.064Z,70.21
2023-03-18T01:02:17.125Z,70.28
2023-03-18T01:07:19.491Z,70.76
2023-03-18T01:12:21.291Z,70.16
2023-03-18T01:17:22.780Z,70.16
2023-03-18T01:22:24.398Z,70.50
2023-03-18T01:27:27.050Z,70.66
2023-03-18T01:32:28.931Z,70.59
2023-03-18T01:37:31.557Z,70.88
2023-03-18T01:42:33.251Z,71.63
2023-03-18T01:47:35.147Z,71.70
2023-03-18T01:52:37.191Z,71.82
2023-03-18T01:57:38.791Z,71.17
2023-03-18T02:02:42.412Z,72.22
2023-03-18T02:07:45.694Z,72.11
2023-03-18T02:12:52.526Z,72.70
2023-03-18T02:17:59.633Z,73.43
2023-03-18T02:23:29.160Z,73.40
2023-03-18T02:28:33.445Z,73.55
2023-03-18T02:33:38.901Z,74.18
2023-03-18T02:38:44.544Z,73.85
2023-03-18T02:43:46.866Z,74.53
2023-03-18T02:48:48.932Z,74.71
2023-03-18T02:53:51.702Z,75.04
2023-03-18T02:58:53.133Z,75.38
2023-03-18T03:03:54.880Z,75.84
2023-03-18T03:08:57.395Z,75.16
2023-03-18T03:13:58.924Z,75.20
2023-03-18T03:19:00.305Z,75.90
2023-03-18T03:24:06.346Z,76.11
2023-03-18T03:29:07.829Z,75.98
2023-03-18T03:34:09.371Z,76.42
2023-03-18T03:39:10.763Z,76.55
2023-03-18T03:44:12.160Z,76.76
2023-03-18T03:49:13.531Z,77.61
2023-03-18T03:54:15.374Z,77.67
2023-03-18T03:59:16.903Z,77.71
2023-03-18T04:04:18.370Z,77.83
2023-03-18T04:09:19.936Z,77.44
2023-03-18T04:14:21.341Z,77.63
2023-03-18T04:19:22.760Z,77.98
2023-03-18T04:24:24.241Z,77.51
2023-03-18T04:29:27.750Z,77.67
2023-03-18T04:34:29.390Z,78.24
2023-03-18T04:39:30.834Z,78.22
2023-03-18T04:44:32.236Z,78.48
2023-03-18T04:49:34.565Z,78.66
2023-03-18T04:54:37.294Z,78.54
2023-03-18T04:59:38.838Z,78.40
2023-03-18T05:04:40.280Z,79.63
2023-03-18T05:09:42.458Z,79.19
2023-03-18T05:14:44.952Z,79.08
2023-03-18T05:19:48.310Z,79.72
2023-03-18T05:24:50.478Z,79.84
2023-03-18T05:29:52.961Z,80.19
2023-03-18T05:34:54.359Z,79.37
2023-03-18T05:39:55.883Z,79.59
2023-03-18T05:44:57.980Z,79.30
2023-03-18T05:49:59.946Z,79.82
2023-03-18T05:55:02.322Z,79.32
2023-03-18T06:00:04.499Z,79.70
2023-03-18T06:05:06.313Z,80.27
2023-03-18T06:10:08.840Z,79.36
2023-03-18T06:15:11.902Z,79.72
2023-03-18T06:20:15.660Z,79.08
2023-03-18T06:25:20.072Z,78.12
2023-03-18T06:30:22.101Z,77.92
2023-03-18T06:35:26.586Z,76.37
2023-03-18T06:40:28.570Z,74.19
2023-03-18T06:45:30.209Z,72.64
2023-03-18T06:50:32.331Z,70.04
2023-03-18T06:55:34.884Z,66.56
2023-03-18T07:00:36.526Z,61.99
2023-03-18T07:05:38.607Z,61.15
2023-03-18T07:10:40.830Z,55.48
2023-03-18T07:15:42.899Z,51.08
2023-03-18T07:20:44.762Z,48.93
2023-03-18T07:25:46.322Z,45.83
2023-03-18T07:30:47.996Z,43.52
2023-03-18T07:35:50.048Z,41.36
2023-03-18T07:40:51.475Z,38.00
2023-03-18T07:45:52.975Z,36.74
2023-03-18T07:50:54.428Z,36.90
2023-03-18T07:55:56.085Z,33.33
2023-03-18T08:00:57.788Z,31.80
2023-03-18T08:05:59.342Z,30.25
2023-03-18T08:11:02.432Z,29.86
2023-03-18T08:16:04.237Z,28.02
2023-03-18T08:21:06.100Z,28.32
2023-03-18T08:26:07.715Z,29.58
2023-03-18T08:31:09.537Z,30.57
2023-03-18T08:36:12.038Z,31.28
2023-03-18T08:41:14.479Z,30.90
2023-03-18T08:46:16.008Z,30.42
2023-03-18T08:51:17.490Z,31.20
2023-03-18T08:56:18.887Z,29.54
2023-03-18T09:01:22.307Z,30.59
2023-03-18T09:06:23.743Z,28.72
2023-03-18T09:11:25.400Z,30.04
2023-03-18T09:16:27.032Z,29.69
2023-03-18T09:21:28.512Z,30.57
2023-03-18T09:26:30.127Z,30.65
2023-03-18T09:31:31.707Z,30.28
2023-03-18T09:36:33.828Z,30.11
2023-03-18T09:42:03.407Z,28.23
2023-03-18T09:47:22.452Z,29.16
2023-03-18T09:52:37.912Z,30.01
2023-03-18T09:57:44.106Z,30.14
2023-03-18T10:02:53.266Z,30.88
2023-03-18T10:07:59.401Z,30.49
2023-03-18T10:13:11.323Z,29.48
2023-03-18T10:18:29.413Z,29.54
2023-03-18T10:23:31.002Z,30.36
2023-03-18T10:28:35.707Z,29.49
2023-03-18T10:33:47.770Z,30.61
2023-03-18T10:38:51.773Z,30.47
2023-03-18T10:43:55.236Z,31.73
2023-03-18T10:49:06.305Z,30.81
2023-03-18T10:54:22.995Z,30.67
2023-03-18T10:59:26.488Z,32.21
2023-03-18T11:04:31.982Z,32.13
2023-03-18T11:09:39.480Z,32.90
2023-03-18T11:14:42.239Z,31.54
2023-03-18T11:19:49.287Z,32.82
2023-03-18T11:25:13.818Z,33.63
2023-03-18T11:30:33.637Z,32.17
2023-03-18T11:35:54.126Z,32.95
2023-03-18T11:41:16.975Z,33.96
2023-03-18T11:46:18.838Z,33.92
2023-03-18T11:51:40.860Z,34.48
2023-03-18T11:56:49.769Z,35.09
2023-03-18T12:02:12.582Z,34.41
2023-03-18T12:07:44.915Z,34.02
2023-03-18T12:13:03.517Z,33.96
2023-03-18T12:18:14.536Z,35.02
2023-03-18T12:23:39.783Z,33.00
2023-03-18T12:29:01.636Z,34.81
2023-03-18T12:34:04.397Z,35.15
2023-03-18T12:39:37.078Z,35.18
2023-03-18T12:44:47.870Z,35.39
2023-03-18T12:49:54.829Z,35.47
2023-03-18T12:55:05.988Z,34.99
2023-03-18T13:00:19.157Z,36.07
2023-03-18T13:05:43.067Z,35.64
2023-03-18T13:10:50.051Z,35.55
2023-03-18T13:15:52.984Z,35.89
2023-03-18T13:21:16.114Z,36.08
2023-03-18T13:26:41.824Z,35.70
2023-03-18T13:32:15.660Z,34.47
2023-03-18T13:37:36.020Z,34.39
2023-03-18T13:42:40.170Z,35.75
2023-03-18T13:47:44.307Z,35.20
2023-03-18T13:52:47.973Z,35.40
2023-03-18T13:57:57.373Z,34.58
2023-03-18T14:03:19.384Z,36.10
2023-03-18T14:08:34.152Z,35.56
2023-03-18T14:13:36.107Z,35.22
2023-03-18T14:18:38.509Z,35.55
2023-03-18T14:23:44.448Z,35.96
2023-03-18T14:28:55.512Z,36.74
2023-03-18T14:34:03.912Z,36.24
2023-03-18T14:39:07.338Z,35.82
2023-03-18T14:44:20.834Z,36.57
2023-03-18T14:49:39.409Z,34.92
2023-03-18T14:54:43.705Z,35.55
2023-03-18T14:59:45.145Z,35.38
2023-03-18T15:04:53.227Z,35.91
2023-03-18T15:09:55.084Z,34.54
2023-03-18T15:14:56.947Z,35.46
2023-03-18T15:20:00.289Z,35.82
2023-03-18T15:25:04.637Z,36.69
2023-03-18T15:30:07.638Z,36.82
2023-03-18T15:35:36.179Z,37.04
2023-03-18T15:40:52.757Z,37.16
2023-03-18T15:46:00.165Z,37.19
2023-03-18T15:51:04.954Z,37.63
2023-03-18T15:56:26.782Z,37.61
2023-03-18T16:01:28.751Z,38.33
2023-03-18T16:06:34.286Z,37.56
2023-03-18T16:11:36.928Z,37.93
2023-03-18T16:16:38.502Z,37.53
2023-03-18T16:21:41.697Z,37.74
2023-03-18T16:26:43.310Z,38.06
2023-03-18T16:31:46.182Z,38.55
2023-03-18T16:36:50.592Z,38.59
2023-03-18T16:41:52.626Z,38.76
2023-03-18T16:46:56.819Z,39.41
2023-03-18T16:51:59.047Z,39.36
2023-03-18T16:57:04.354Z,39.25
2023-03-18T17:02:25.202Z,39.29
2023-03-18T17:07:28.436Z,39.50
2023-03-18T17:12:30.710Z,39.73
2023-03-18T17:17:35.890Z,39.95
2023-03-18T17:22:37.805Z,39.80
2023-03-18T17:27:50.831Z,40.75
2023-03-18T17:32:52.478Z,40.66
2023-03-18T17:37:54.782Z,41.22
2023-03-18T17:42:56.703Z,42.27
2023-03-18T17:48:14.938Z,42.86
2023-03-18T17:53:28.214Z,43.66
2023-03-18T17:58:32.097Z,43.32
2023-03-18T18:03:36.233Z,44.01
2023-03-18T18:08:37.648Z,43.87
2023-03-18T18:13:40.025Z,44.09
2023-03-18T18:18:41.652Z,45.22
2023-03-18T18:23:45.635Z,45.42
2023-03-18T18:28:49.861Z,45.73
2023-03-18T18:33:52.398Z,46.74
2023-03-18T18:38:55.117Z,47.08
2023-03-18T18:43:56.698Z,47.28
2023-03-18T18:48:58.442Z,48.41
2023-03-18T18:54:00.035Z,48.85
2023-03-18T18:59:05.118Z,49.00
2023-03-18T19:04:13.767Z,49.44
2023-03-18T19:09:21.018Z,50.22
2023-03-18T19:14:25.367Z,50.38
2023-03-18T19:19:34.372Z,50.69
2023-03-18T19:24:36.977Z,51.37
2023-03-18T19:29:38.559Z,51.33
2023-03-18T19:34:40.117Z,51.79
2023-03-18T19:39:42.784Z,52.62
2023-03-18T19:44:46.272Z,52.79
2023-03-18T19:49:47.849Z,53.40
2023-03-18T19:54:50.461Z,53.32
2023-03-18T19:59:53.996Z,53.82
2023-03-18T20:04:58.239Z,54.19
2023-03-18T20:09:59.660Z,54.73
2023-03-18T20:15:01.184Z,54.71
2023-03-18T20:20:02.710Z,54.98
2023-03-18T20:25:06.634Z,55.11
2023-03-18T20:30:21.969Z,55.00
2023-03-18T20:35:28.821Z,55.42
2023-03-18T20:40:31.288Z,54.77
2023-03-18T20:45:33.061Z,55.10
2023-03-18T20:50:35.004Z,55.19
2023-03-18T20:55:36.504Z,55.91
2023-03-18T21:00:38.718Z,56.13
2023-03-18T21:05:40.136Z,55.98
2023-03-18T21:10:42.401Z,56.69
2023-03-18T21:15:43.865Z,55.96
2023-03-18T21:20:45.540Z,56.72
2023-03-18T21:25:47.401Z,57.55
2023-03-18T21:30:52.500Z,57.37
2023-03-18T21:35:57.265Z,57.98
2023-03-18T21:41:00.719Z,58.13
2023-03-18T21:46:05.384Z,58.31
2023-03-18T21:51:09.461Z,58.08
2023-03-18T21:56:11.191Z,58.90
2023-03-18T22:01:19.233Z,60.86
2023-03-18T22:06:21.991Z,60.58
2023-03-18T22:11:23.700Z,59.94
2023-03-18T22:16:25.370Z,60.13
2023-03-18T22:21:28.520Z,60.32
2023-03-18T22:26:29.975Z,61.28
2023-03-18T22:31:31.566Z,60.48
2023-03-18T22:36:33.098Z,62.10
2023-03-18T22:41:34.490Z,61.42
2023-03-18T22:46:36.135Z,62.77
2023-03-18T22:51:39.804Z,64.31
2023-03-18T22:56:42.154Z,64.82
2023-03-18T23:01:43.765Z,65.14
2023-03-18T23:06:46.105Z,65.65
2023-03-18T23:11:47.610Z,65.36
2023-03-18T23:16:49.126Z,67.00
2023-03-18T23:21:50.639Z,68.40
2023-03-18T23:26:52.044Z,70.99
2023-03-18T23:31:53.511Z,69.45
2023-03-18T23:36:54.978Z,70.02
2023-03-18T23:41:56.587Z,70.34
2023-03-18T23:46:58.131Z,70.25
2023-03-18T23:52:01.232Z,70.25
2023-03-18T23:57:04.137Z,70.47
